Flight Track Log - Related Links

Times and Time Zones

All times are in EDT time to prevent confusion due to time zone crossing. See the N821WW flight status page for this flight to view local times or setup timezone preferences in your user account.

Time Position Orientation Groundspeed Altitude Reporting Facility
EDT Latitude Longitude Course Direction KTS MPH feet Rate Location/Type
Sun 11:16:39 AM 39.5667 -104.8167 136° Southeast 79 91 6,300  Level Denver TRACON
Sun 11:17:39 AM 39.5500 -104.8000 142° Southeast 83 96 6,800 446 Climbing Denver TRACON
Sun 11:18:40 AM 39.5333 -104.7833 142° Southeast 110 127 7,200 447 Climbing Denver TRACON
Sun 11:19:13 AM 39.5108 -104.7750 164° South 116 133 7,500 447 Climbing Denver Center
Sun 11:20:14 AM 39.4883 -104.7556 146° Southeast 117 135 7,900 532 Climbing Denver Center
Sun 11:21:17 AM 39.4533 -104.7247 146° Southeast 123 142 8,600 528 Climbing Denver Center
Sun 11:22:00 AM 39.3438 -104.7862 136° Southeast  Level Estimated
Sun 11:22:19 AM 39.4308 -104.6894 130° Southeast 124 143 9,000  Level Denver Center
Sun 11:23:21 AM 39.4014 -104.6458 131° Southeast 150 173 9,000  Level Denver Center
Sun 11:24:23 AM 39.3725 -104.6047 132° Southeast 152 175 9,000  Level Denver Center
Sun 11:25:25 AM 39.3439 -104.5658 134° Southeast 152 175 9,000  Level Denver Center
Sun 11:26:27 AM 39.3136 -104.5233 133° Southeast 151 174 9,000  Level Denver Center
Sun 11:27:42 AM 39.2775 -104.4739 133° Southeast 152 175 9,000  Level Denver Center
Sun 11:28:44 AM 39.2469 -104.4314 133° Southeast 151 174 9,000  Level Denver Center
Sun 11:29:46 AM 39.2192 -104.3911 132° Southeast 150 173 9,000  Level Denver Center
Sun 11:30:48 AM 39.1747 -104.3881 177° South 155 178 9,000  Level Denver Center
Sun 11:31:56 AM 39.1300 -104.3917 184° South 149 171 9,000  Level Denver Center
Sun 11:32:52 AM 39.0958 -104.3958 185° South 148 170 9,000 153 Level Denver Center
Sun 11:33:54 AM 39.0553 -104.4161 201° Southwest 141 162 9,300 387 Climbing Denver Center
Sun 11:34:56 AM 39.0297 -104.4369 212° Southwest 123 142 9,800 486 Climbing Denver Center
Sun 11:35:08 AM 39.0244 -104.4406 208° Southwest 108 124 9,900 290 Climbing Denver Center
Sun 11:35:58 AM 38.9925 -104.4497 193° South 129 148 10,100 161 Climbing Denver Center
Sun 11:37:00 AM 38.9533 -104.4514 182° South 146 168 10,200 144 Climbing Denver Center
Sun 11:38:03 AM 38.9072 -104.4533 182° South 146 168 10,400 -57 Climbing Denver Center
Sun 11:38:45 AM 38.8742 -104.4556 183° South 170 196 10,100 -290 Descending Denver Center
Sun 11:39:05 AM 38.8614 -104.4556 180° South 164 189 10,100 -73 Level Denver Center
Sun 11:40:07 AM 38.8100 -104.4583 182° South 167 192 10,000 -48 Descending Denver Center
Sun 11:41:09 AM 38.7675 -104.4636 186° South 162 186 10,000  Level Denver Center
Sun 11:42:11 AM 38.7167 -104.4667 183° South 162 186 10,000  Level Denver Center
Sun 11:43:13 AM 38.6736 -104.4694 183° South 162 186 10,000  Level Denver Center
Sun 11:44:15 AM 38.6236 -104.4725 183° South 162 186 10,000  Level Denver Center
Sun 11:45:17 AM 38.5800 -104.4761 184° South 162 186 10,000  Level Denver Center
Sun 11:46:19 AM 38.5436 -104.4792 184° South 162 186 10,000 -194 Level Denver Center
Sun 11:47:21 AM 38.4994 -104.4386 144° Southeast 156 180 9,600 -484 Descending Denver Center
Sun 11:48:23 AM 38.4656 -104.3933 134° Southeast 156 180 9,000 -480 Descending Denver Center
Sun 11:49:26 AM 38.4375 -104.3564 134° Southeast 156 180 8,600 -432 Descending Denver Center
Sun 11:50:28 AM 38.4092 -104.3206 135° Southeast 154 177 8,100 -290 Descending Denver Center
Sun 11:51:30 AM 38.3817 -104.2803 131° Southeast 143 165 8,000 -48 Descending Denver Center
Sun 11:52:32 AM 38.3592 -104.2506 134° Southeast 130 150 8,000 -194 Level Denver Center
Sun 11:53:34 AM 38.3186 -104.2453 174° South 136 157 7,600 -387 Descending Denver Center
Sun 11:54:36 AM 38.2944 -104.2700 219° Southwest 123 142 7,200 -339 Descending Denver Center
Sun 11:55:38 AM 38.2903 -104.3139 263° West 117 135 6,900 -242 Descending Denver Center
Sun 11:56:40 AM 38.2914 -104.3433 273° West 100 115 6,700 -387 Descending Denver Center
Sun 11:57:42 AM 38.2897 -104.3797 267° West 93 107 6,100 -581 Descending Denver Center
Sun 11:58:44 AM 38.2892 -104.4161 269° West 98 113 5,500 -532 Descending Denver Center
Sun 11:59:46 AM 38.2883 -104.4483 268° West 99 114 5,000 -484 Descending Denver Center

Login

Don't have an account? Register now (free) for customized features, flight alerts, and more!